Meteo Giornale » Osservazioni meteo Stati Uniti (USA) » Burlington Alamance
ore: 01:54 - Osservazioni Meteo Burlington Alamance
Lat. 36° 2' N Lon. 79° 28' W Alt. 188 metri s.l.m.
23 °C
Sereno
Temp. 24 Ore
18 °C
33 °C
Nord
0 Km/h
Dew point 22 °C
Umidità 94 %
Visibilità 10 Km
Il sole sorge alle ore 06:49
Il sole tramonta alle ore 19:45
| Data e Ora | Cielo e Fenomeni | T °C | DP °C | Um. % | Pres. hPa | Vis. km | Vento km/h | |
|---|---|---|---|---|---|---|---|---|
| Oggi h: 01:54 | Sereno | 23 | 22 | 94 | 1019 | 10 | N 0 | |
| Oggi h: 00:54 | Coperto | 24 | 23 | 94 | 1019 | 10 | S/SO 7.4 | |
| Ieri h: 23:54 | Molto Nuvoloso | 25 | 23 | 88 | 1019 | 10 | N 5.5 | |
| Ieri h: 22:54 | Sereno | 24 | 23 | 94 | 1019 | 10 | N 5.5 | |
| Ieri h: 21:54 | Sereno | 24 | 23 | 94 | 1019 | 10 | N 0 | |
| Ieri h: 20:54 | Sereno | 26 | 23 | 83 | 1018 | 10 | N 0 | |
| Ieri h: 19:54 | Sereno | 28 | 23 | 74 | 1018 | 10 | N 0 | |
| Ieri h: 18:54 | Sereno | 30 | 22 | 62 | 1018 | 10 | O/SO 7.4 | |
| Ieri h: 17:54 | Sereno | 32 | 22 | 55 | 1018 | 10 | S/SO 11.1 | |
| Ieri h: 16:54 | Poco Nuvoloso | 33 | 21 | 49 | 1018 | 10 | SE 11.1 | |
| Ieri h: 15:54 | Sereno | 33 | 19 | 43 | 1018 | 10 | N 7.4 | |
| Ieri h: 14:54 | Sereno | 32 | 20 | 49 | 1019 | 10 | N 7.4 | |
| Ieri h: 13:54 | Sereno | 32 | 21 | 52 | 1020 | 10 | SO 9.3 | |
| Ieri h: 12:54 | Sereno | 31 | 22 | 58 | 1020 | 10 | S/SO 13 | |
| Ieri h: 11:54 | Sereno | 30 | 22 | 62 | 1020 | 10 | SO 9.3 | |
| Ieri h: 10:54 | Sereno | 28 | 23 | 74 | 1021 | 10 | O/SO 7.4 | |
| Ieri h: 09:54 | Sereno | 27 | 22 | 74 | 1020 | 10 | O/SO 11.1 | |
| Ieri h: 08:54 | Sereno | 23 | 22 | 94 | 1020 | 10 | N 5.5 | |
| Ieri h: 07:54 | Sereno | 20 | 19 | 93 | 1020 | 10 | N 0 | |
| Ieri h: 06:54 | Sereno | 18 | 18 | 100 | 1020 | 11 | N 0 | |
| Ieri h: 06:40 | Foschia | 18 | 18 | 100 | 1020 | 5 | N 0 | |
| Ieri h: 06:30 | Foschia | 18 | 18 | 100 | 1020 | 5 | N 0 | |
| Ieri h: 05:54 | Sereno | 19 | 19 | 100 | 1020 | 10 | N 0 | |
| Ieri h: 04:54 | Foschia | 18 | 18 | 100 | 1020 | 10 | N 0 | |
| Ieri h: 03:54 | Sereno | 18 | 18 | 100 | 1020 | 11 | N 0 | |
| Ieri h: 02:54 | Sereno | 19 | 19 | 100 | 1020 | 14 | N 0 | |



